createdAt,value
2024-03-12T00:01:21.082Z,89.60
2024-03-12T00:03:49.283Z,89.60
2024-03-12T00:06:17.332Z,89.60
2024-03-12T00:08:45.044Z,89.60
2024-03-12T00:11:13.002Z,89.60
2024-03-12T00:13:41.197Z,89.60
2024-03-12T00:16:09.029Z,89.70
2024-03-12T00:18:37.416Z,89.70
2024-03-12T00:21:05.184Z,89.60
2024-03-12T00:23:33.450Z,89.70
2024-03-12T00:26:01.491Z,89.70
2024-03-12T00:28:29.107Z,89.70
2024-03-12T00:30:56.896Z,89.70
2024-03-12T00:33:24.504Z,89.80
2024-03-12T00:35:52.507Z,89.80
2024-03-12T00:38:20.382Z,89.80
2024-03-12T00:40:49.433Z,89.80
2024-03-12T00:43:19.106Z,89.90
2024-03-12T00:45:47.593Z,89.90
2024-03-12T00:48:15.662Z,90.00
2024-03-12T00:50:47.451Z,90.00
2024-03-12T00:53:16.854Z,90.00
2024-03-12T00:55:48.592Z,90.00
2024-03-12T00:58:17.240Z,90.00
2024-03-12T01:00:46.958Z,90.00
2024-03-12T01:03:14.784Z,90.00
2024-03-12T01:05:44.140Z,90.10
2024-03-12T01:08:13.351Z,90.10
2024-03-12T01:10:41.695Z,90.10
2024-03-12T01:13:11.553Z,90.10
2024-03-12T01:15:40.807Z,90.10
2024-03-12T01:18:12.274Z,90.10
2024-03-12T01:20:40.472Z,90.10
2024-03-12T01:23:08.840Z,90.10
2024-03-12T01:25:37.957Z,90.10
2024-03-12T01:28:08.014Z,90.20
2024-03-12T01:30:38.077Z,90.20
2024-03-12T01:33:09.890Z,90.20
2024-03-12T01:35:40.573Z,90.20
2024-03-12T01:38:11.943Z,90.20
2024-03-12T01:40:41.001Z,90.20
2024-03-12T01:43:09.334Z,90.20
2024-03-12T01:45:38.076Z,90.20
2024-03-12T01:48:09.429Z,90.20
2024-03-12T01:50:38.365Z,90.10
2024-03-12T01:53:07.385Z,90.10
2024-03-12T01:55:38.873Z,90.10
2024-03-12T01:58:06.722Z,90.10
2024-03-12T02:00:34.967Z,90.10
2024-03-12T02:03:03.138Z,90.10
2024-03-12T02:05:31.788Z,90.00
2024-03-12T02:07:59.539Z,90.10
2024-03-12T02:10:28.447Z,90.10
2024-03-12T02:12:58.050Z,90.10
2024-03-12T02:15:25.914Z,90.10
2024-03-12T02:17:53.973Z,90.10
2024-03-12T02:20:22.909Z,90.20
2024-03-12T02:22:54.474Z,90.20
2024-03-12T02:25:23.202Z,90.20
2024-03-12T02:27:51.629Z,90.20
2024-03-12T02:30:19.828Z,90.30
2024-03-12T02:32:48.851Z,90.30
2024-03-12T02:35:17.590Z,90.40
2024-03-12T02:37:46.754Z,90.40
2024-03-12T02:40:15.619Z,90.50
2024-03-12T02:42:44.822Z,90.50
2024-03-12T02:45:18.520Z,90.50
2024-03-12T02:47:47.792Z,90.60
2024-03-12T02:50:19.629Z,90.60
2024-03-12T02:52:47.375Z,90.70
2024-03-12T02:55:15.537Z,90.70
2024-03-12T02:57:43.516Z,90.70
2024-03-12T03:00:16.072Z,90.70
2024-03-12T03:02:45.583Z,90.80
2024-03-12T03:05:14.573Z,90.80
2024-03-12T03:07:43.397Z,90.90
2024-03-12T03:10:13.066Z,90.90
2024-03-12T03:12:44.728Z,90.90
2024-03-12T03:15:15.387Z,91.00
2024-03-12T03:17:44.128Z,91.00
2024-03-12T03:20:13.318Z,91.10
2024-03-12T03:22:42.463Z,91.10
2024-03-12T03:25:10.447Z,91.20
2024-03-12T03:27:38.233Z,91.30
2024-03-12T03:30:13.818Z,91.30
2024-03-12T03:32:41.560Z,91.40
2024-03-12T03:35:09.315Z,91.40
2024-03-12T03:37:37.008Z,91.40
2024-03-12T03:40:05.997Z,91.50
2024-03-12T03:42:34.417Z,91.50
2024-03-12T03:45:02.138Z,91.60
2024-03-12T03:47:35.782Z,91.60
2024-03-12T03:50:08.753Z,91.70
2024-03-12T03:52:38.383Z,91.70
2024-03-12T03:55:07.103Z,91.80
2024-03-12T03:57:35.307Z,91.80
2024-03-12T04:00:13.504Z,91.90
2024-03-12T04:02:44.613Z,91.90
2024-03-12T04:05:13.125Z,91.90
2024-03-12T04:07:42.129Z,92.00
2024-03-12T04:10:13.335Z,92.00
2024-03-12T04:12:46.060Z,92.10
2024-03-12T04:15:14.250Z,92.10
2024-03-12T04:17:44.850Z,92.20
2024-03-12T04:20:12.951Z,92.20
2024-03-12T04:22:47.475Z,92.30
2024-03-12T04:25:16.850Z,92.30
2024-03-12T04:27:45.101Z,92.30
2024-03-12T04:30:13.292Z,92.40
2024-03-12T04:32:41.592Z,92.40
2024-03-12T04:35:11.347Z,92.40
2024-03-12T04:37:40.067Z,92.40
2024-03-12T04:40:08.685Z,92.50
2024-03-12T04:42:38.018Z,92.50
2024-03-12T04:45:06.295Z,92.60
2024-03-12T04:47:34.776Z,92.60
2024-03-12T04:50:04.338Z,92.60
2024-03-12T04:52:35.110Z,92.70
2024-03-12T04:55:03.521Z,92.70
2024-03-12T04:57:31.134Z,92.80
2024-03-12T04:59:58.944Z,92.80
2024-03-12T05:02:26.481Z,92.80
2024-03-12T05:04:54.057Z,92.90
2024-03-12T05:07:21.744Z,92.90
2024-03-12T05:09:49.485Z,93.00
2024-03-12T05:12:17.765Z,93.00
2024-03-12T05:14:45.538Z,93.00
2024-03-12T05:17:13.229Z,93.10
2024-03-12T05:19:40.911Z,93.10
2024-03-12T05:22:08.638Z,93.20
2024-03-12T05:24:36.881Z,93.20
2024-03-12T05:27:05.244Z,93.20
2024-03-12T05:29:43.733Z,93.20
2024-03-12T05:32:20.255Z,93.30
2024-03-12T05:34:58.109Z,93.30
2024-03-12T05:38:02.630Z,93.30
2024-03-12T05:40:48.267Z,93.30
2024-03-12T05:43:36.821Z,93.30
2024-03-12T05:46:23.176Z,93.40
2024-03-12T05:48:52.048Z,93.40
2024-03-12T05:51:20.542Z,93.40
2024-03-12T05:53:48.672Z,93.40
2024-03-12T05:56:19.660Z,93.40
2024-03-12T05:58:47.843Z,93.50
2024-03-12T06:01:16.240Z,93.50
2024-03-12T06:03:44.000Z,93.50
2024-03-12T06:06:12.493Z,93.50
2024-03-12T06:08:40.108Z,93.60
2024-03-12T06:11:07.837Z,93.50
2024-03-12T06:13:35.379Z,93.60
2024-03-12T06:16:03.092Z,93.60
2024-03-12T06:18:30.809Z,93.60
2024-03-12T06:20:58.540Z,93.60
2024-03-12T06:23:27.166Z,93.60
2024-03-12T06:25:55.338Z,93.60
2024-03-12T06:28:27.132Z,93.60
2024-03-12T06:30:54.896Z,93.70
2024-03-12T06:33:22.757Z,93.70
2024-03-12T06:35:50.306Z,93.70
2024-03-12T06:38:21.880Z,93.70
2024-03-12T06:40:50.002Z,93.70
2024-03-12T06:43:19.941Z,93.70
2024-03-12T06:45:48.327Z,93.80
2024-03-12T06:48:19.676Z,93.80
2024-03-12T06:50:47.789Z,93.80
2024-03-12T06:53:16.389Z,93.80
2024-03-12T06:55:47.445Z,93.90
2024-03-12T06:58:20.556Z,93.90
2024-03-12T07:00:51.519Z,93.90
2024-03-12T07:03:23.521Z,93.90
2024-03-12T07:05:52.235Z,93.90
2024-03-12T07:08:22.921Z,93.90
2024-03-12T07:10:52.027Z,93.90
2024-03-12T07:13:24.703Z,94.00
2024-03-12T07:15:53.270Z,94.00
2024-03-12T07:18:22.823Z,94.00
2024-03-12T07:20:54.037Z,94.00
2024-03-12T07:23:22.210Z,94.00
2024-03-12T07:25:50.985Z,94.10
2024-03-12T07:28:22.060Z,94.10
2024-03-12T07:30:52.524Z,94.10
2024-03-12T07:33:20.497Z,94.10
2024-03-12T07:35:48.433Z,94.10
2024-03-12T07:38:16.800Z,94.10
2024-03-12T07:40:45.182Z,94.10
2024-03-12T07:43:13.221Z,94.10
2024-03-12T07:45:47.666Z,94.20
2024-03-12T07:48:15.855Z,94.10
2024-03-12T07:50:44.899Z,94.20
2024-03-12T07:53:13.766Z,94.20
2024-03-12T07:55:43.521Z,94.20
2024-03-12T07:58:12.495Z,94.20
2024-03-12T08:00:40.499Z,94.20
2024-03-12T08:03:08.758Z,94.20
2024-03-12T08:05:36.430Z,94.20
2024-03-12T08:08:07.726Z,94.20
2024-03-12T08:10:35.362Z,94.20
2024-03-12T08:13:03.352Z,94.20
2024-03-12T08:15:31.164Z,94.20
2024-03-12T08:18:06.156Z,94.30
2024-03-12T08:20:40.750Z,94.30
2024-03-12T08:23:08.429Z,94.30
2024-03-12T08:25:49.944Z,94.30
2024-03-12T08:28:23.596Z,94.30
2024-03-12T08:30:53.386Z,94.30
2024-03-12T08:33:21.514Z,94.30
2024-03-12T08:35:49.401Z,94.30
2024-03-12T08:38:17.480Z,94.30
2024-03-12T08:40:48.335Z,94.30
2024-03-12T08:43:17.372Z,94.20
2024-03-12T08:45:46.515Z,94.30
2024-03-12T08:48:15.732Z,94.30
2024-03-12T08:50:45.017Z,94.30
2024-03-12T08:53:16.090Z,94.30
2024-03-12T08:55:45.093Z,94.30
2024-03-12T08:58:14.054Z,94.20
2024-03-12T09:00:45.066Z,94.30
2024-03-12T09:03:14.477Z,94.30
2024-03-12T09:05:43.759Z,94.30
2024-03-12T09:08:13.839Z,94.20
2024-03-12T09:10:44.002Z,94.30
2024-03-12T09:13:13.796Z,94.20
2024-03-12T09:15:43.289Z,94.20
2024-03-12T09:18:13.139Z,94.20
2024-03-12T09:20:42.503Z,94.20
2024-03-12T09:23:11.936Z,94.20
2024-03-12T09:25:43.665Z,94.30
2024-03-12T09:28:12.912Z,94.20
2024-03-12T09:30:42.106Z,94.20
2024-03-12T09:33:12.561Z,94.20
2024-03-12T09:35:41.935Z,94.20
2024-03-12T09:38:11.380Z,94.20
2024-03-12T09:40:44.394Z,94.20
2024-03-12T09:43:15.509Z,94.20
2024-03-12T09:45:46.666Z,94.30
2024-03-12T09:48:17.205Z,94.30
2024-03-12T09:50:48.719Z,94.30
2024-03-12T09:53:20.429Z,94.30
2024-03-12T09:55:51.635Z,94.30
2024-03-12T09:58:22.790Z,94.40
2024-03-12T10:00:55.987Z,94.30
2024-03-12T10:03:29.021Z,94.30
2024-03-12T10:06:02.056Z,94.30
2024-03-12T10:08:36.378Z,94.30
2024-03-12T10:11:12.248Z,94.30
2024-03-12T10:13:44.997Z,94.20
2024-03-12T10:16:21.754Z,94.20
2024-03-12T10:19:14.310Z,94.20
2024-03-12T10:21:51.838Z,94.00
2024-03-12T10:24:28.479Z,93.90
2024-03-12T10:27:05.464Z,93.90
2024-03-12T10:29:41.259Z,93.80
2024-03-12T10:32:22.882Z,93.80
2024-03-12T10:34:56.827Z,93.70
2024-03-12T10:37:30.263Z,93.80
2024-03-12T10:40:17.939Z,93.80
2024-03-12T10:43:01.364Z,93.70
2024-03-12T10:45:35.981Z,93.70
2024-03-12T10:48:13.206Z,93.50
2024-03-12T10:50:50.675Z,93.40
2024-03-12T10:53:29.604Z,93.20
2024-03-12T10:56:11.548Z,93.10
2024-03-12T10:58:51.920Z,92.90
2024-03-12T11:01:25.915Z,92.80
2024-03-12T11:04:02.203Z,92.50
2024-03-12T11:06:39.437Z,92.40
2024-03-12T11:09:25.123Z,92.30
2024-03-12T11:12:00.740Z,92.20
2024-03-12T11:14:35.734Z,92.20
2024-03-12T11:17:29.223Z,92.00
2024-03-12T11:20:03.838Z,91.80
2024-03-12T11:22:40.578Z,91.40
2024-03-12T11:25:18.237Z,91.00
2024-03-12T11:27:55.517Z,90.60
2024-03-12T11:30:34.399Z,90.20
2024-03-12T11:33:12.965Z,89.90
2024-03-12T11:35:50.326Z,90.00
2024-03-12T11:38:35.097Z,90.00
2024-03-12T11:41:10.834Z,89.90
2024-03-12T11:43:49.266Z,89.70
2024-03-12T11:46:44.456Z,89.60
2024-03-12T11:49:38.091Z,89.30
2024-03-12T11:52:13.707Z,88.90
2024-03-12T11:54:53.075Z,88.80
2024-03-12T11:57:37.292Z,88.70
2024-03-12T12:00:18.019Z,88.80
2024-03-12T12:02:53.170Z,88.60
2024-03-12T12:05:27.363Z,87.60
2024-03-12T12:08:08.198Z,86.20
2024-03-12T12:10:41.366Z,85.80
2024-03-12T12:13:19.306Z,85.20
2024-03-12T12:16:04.280Z,84.20
2024-03-12T12:18:36.055Z,84.00
2024-03-12T12:21:11.547Z,84.10
2024-03-12T12:23:42.226Z,84.40
2024-03-12T12:26:21.131Z,84.80
2024-03-12T12:28:59.737Z,85.10
2024-03-12T12:31:31.440Z,85.00
2024-03-12T12:34:03.579Z,84.90
2024-03-12T12:36:37.780Z,84.50
2024-03-12T12:39:12.494Z,84.50
2024-03-12T12:41:48.955Z,84.80
2024-03-12T12:44:28.757Z,85.00
2024-03-12T12:47:02.100Z,85.00
2024-03-12T12:49:38.529Z,85.00
2024-03-12T12:52:17.047Z,85.00
2024-03-12T12:54:52.619Z,84.80
2024-03-12T12:57:26.633Z,84.50
2024-03-12T13:00:00.279Z,84.30
2024-03-12T13:02:33.466Z,83.60
2024-03-12T13:05:07.925Z,83.20
2024-03-12T13:07:43.199Z,82.70
2024-03-12T13:10:22.083Z,82.80
2024-03-12T13:12:57.374Z,82.60
2024-03-12T13:15:37.703Z,82.30
2024-03-12T13:18:12.745Z,82.40
2024-03-12T13:20:46.086Z,82.00
2024-03-12T13:23:19.302Z,82.30
2024-03-12T13:25:52.174Z,82.30
2024-03-12T13:28:26.980Z,81.80
2024-03-12T13:30:59.142Z,81.60
2024-03-12T13:33:32.293Z,81.80
2024-03-12T13:36:04.606Z,82.00
2024-03-12T13:38:37.410Z,82.10
2024-03-12T13:41:13.393Z,82.30
2024-03-12T13:43:46.857Z,82.20
2024-03-12T13:46:20.347Z,82.40
2024-03-12T13:48:52.012Z,82.60
2024-03-12T13:51:22.076Z,82.70
2024-03-12T13:53:53.581Z,82.90
2024-03-12T13:56:25.831Z,83.10
2024-03-12T13:58:56.373Z,83.20
2024-03-12T14:01:27.122Z,83.40
2024-03-12T14:03:57.602Z,83.50
2024-03-12T14:06:29.005Z,83.50
2024-03-12T14:08:59.724Z,83.50
2024-03-12T14:11:30.132Z,83.60
2024-03-12T14:14:00.691Z,83.70
2024-03-12T14:16:32.385Z,83.70
2024-03-12T14:19:03.626Z,83.70
2024-03-12T14:21:34.692Z,83.80
2024-03-12T14:24:08.324Z,84.00
2024-03-12T14:26:39.015Z,84.10
2024-03-12T14:29:12.500Z,84.20
2024-03-12T14:31:43.414Z,84.20
2024-03-12T14:34:14.933Z,84.30
2024-03-12T14:36:45.498Z,84.40
2024-03-12T14:39:16.253Z,84.50
2024-03-12T14:41:46.125Z,84.60
2024-03-12T14:44:16.584Z,84.70
2024-03-12T14:46:49.009Z,84.90
2024-03-12T14:49:18.999Z,85.00
2024-03-12T14:51:49.235Z,85.10
2024-03-12T14:54:19.283Z,85.30
2024-03-12T14:56:51.497Z,85.30
2024-03-12T14:59:21.257Z,85.40
2024-03-12T15:01:50.910Z,85.40
2024-03-12T15:04:20.641Z,85.40
2024-03-12T15:06:50.362Z,85.50
2024-03-12T15:09:23.418Z,85.60
2024-03-12T15:11:54.393Z,85.70
2024-03-12T15:14:26.907Z,85.80
2024-03-12T15:16:58.298Z,85.80
2024-03-12T15:19:29.876Z,85.80
2024-03-12T15:22:01.490Z,85.90
2024-03-12T15:24:31.732Z,86.00
2024-03-12T15:27:02.009Z,86.30
2024-03-12T15:29:36.527Z,86.70
2024-03-12T15:32:06.385Z,87.10
2024-03-12T15:34:37.316Z,87.50
2024-03-12T15:37:07.193Z,87.80
2024-03-12T15:39:37.123Z,88.00
2024-03-12T15:42:06.889Z,88.30
2024-03-12T15:44:37.278Z,88.60
2024-03-12T15:47:08.457Z,88.90
2024-03-12T15:49:41.256Z,89.10
2024-03-12T15:52:10.966Z,89.20
2024-03-12T15:54:42.592Z,89.30
2024-03-12T15:57:16.121Z,89.40
2024-03-12T15:59:50.169Z,89.40
2024-03-12T16:02:19.889Z,89.50
2024-03-12T16:04:49.714Z,89.50
2024-03-12T16:07:20.827Z,89.60
2024-03-12T16:09:50.971Z,89.60
2024-03-12T16:12:21.207Z,89.70
2024-03-12T16:14:51.069Z,89.70
2024-03-12T16:17:21.327Z,89.70
2024-03-12T16:19:52.401Z,89.70
2024-03-12T16:22:23.053Z,89.70
2024-03-12T16:24:53.289Z,89.80
2024-03-12T16:27:23.157Z,89.80
2024-03-12T16:29:53.407Z,89.70
2024-03-12T16:32:24.018Z,89.70
2024-03-12T16:34:53.737Z,89.60
2024-03-12T16:37:25.980Z,89.50
2024-03-12T16:39:56.430Z,89.40
2024-03-12T16:42:27.040Z,89.50
2024-03-12T16:44:56.945Z,89.50
2024-03-12T16:47:27.449Z,89.50
2024-03-12T16:49:56.677Z,89.50
2024-03-12T16:52:26.108Z,89.50
2024-03-12T16:54:56.498Z,89.60
2024-03-12T16:57:26.166Z,89.60
2024-03-12T16:59:59.010Z,89.60
2024-03-12T17:02:35.703Z,89.60
2024-03-12T17:05:06.506Z,89.60
2024-03-12T17:07:36.928Z,89.60
2024-03-12T17:10:07.446Z,89.60
2024-03-12T17:12:38.013Z,89.60
2024-03-12T17:15:07.934Z,89.60
2024-03-12T17:17:40.844Z,89.60
2024-03-12T17:20:11.563Z,89.60
2024-03-12T17:22:42.127Z,89.60
2024-03-12T17:25:12.171Z,89.60
2024-03-12T17:27:42.739Z,89.50
2024-03-12T17:30:12.560Z,89.50
2024-03-12T17:32:42.080Z,89.50
2024-03-12T17:35:13.091Z,89.40
2024-03-12T17:37:45.887Z,89.40
2024-03-12T17:40:18.818Z,89.30
2024-03-12T17:42:48.550Z,89.30
2024-03-12T17:45:17.345Z,89.30
2024-03-12T17:47:49.391Z,89.30
2024-03-12T17:50:19.501Z,89.30
2024-03-12T17:52:50.752Z,89.30
2024-03-12T17:55:19.905Z,89.30
2024-03-12T17:57:48.951Z,89.30
2024-03-12T18:00:19.182Z,89.30
2024-03-12T18:02:49.788Z,89.40
2024-03-12T18:05:19.068Z,89.40
2024-03-12T18:07:48.029Z,89.40
2024-03-12T18:10:17.872Z,89.40
2024-03-12T18:12:46.886Z,89.50
2024-03-12T18:15:20.113Z,89.50
2024-03-12T18:17:51.637Z,89.50
2024-03-12T18:20:29.155Z,89.50
2024-03-12T18:22:57.680Z,89.50
2024-03-12T18:25:25.819Z,89.50
2024-03-12T18:27:57.931Z,89.60
2024-03-12T18:30:26.693Z,89.50
2024-03-12T18:32:55.772Z,89.60
2024-03-12T18:35:23.984Z,89.60
2024-03-12T18:37:52.166Z,89.60
2024-03-12T18:40:20.976Z,89.60
2024-03-12T18:42:49.501Z,89.60
2024-03-12T18:45:19.759Z,89.60
2024-03-12T18:47:51.529Z,89.60
2024-03-12T18:50:19.810Z,89.50
2024-03-12T18:52:47.573Z,89.50
2024-03-12T18:55:18.131Z,89.50
2024-03-12T18:57:46.888Z,89.50
2024-03-12T19:00:21.484Z,89.50
2024-03-12T19:02:52.068Z,89.50
2024-03-12T19:05:21.772Z,89.50
2024-03-12T19:07:50.293Z,89.50
2024-03-12T19:10:18.844Z,89.60
2024-03-12T19:12:46.899Z,89.60
2024-03-12T19:15:16.256Z,89.60
2024-03-12T19:17:46.208Z,89.60
2024-03-12T19:20:17.596Z,89.60
2024-03-12T19:22:47.023Z,89.50
2024-03-12T19:25:16.849Z,89.50
2024-03-12T19:27:46.415Z,89.50
2024-03-12T19:30:15.529Z,89.50
2024-03-12T19:32:43.326Z,89.50
2024-03-12T19:35:13.740Z,89.50
2024-03-12T19:37:43.189Z,89.50
2024-03-12T19:40:17.535Z,89.50
2024-03-12T19:42:46.783Z,89.50
2024-03-12T19:45:19.284Z,89.40
2024-03-12T19:47:47.702Z,89.40
2024-03-12T19:50:16.592Z,89.40
2024-03-12T19:52:47.879Z,89.40
2024-03-12T19:55:20.504Z,89.40
2024-03-12T19:57:55.108Z,89.40
2024-03-12T20:00:24.176Z,89.40
2024-03-12T20:02:52.372Z,89.40
2024-03-12T20:05:21.639Z,89.40
2024-03-12T20:07:49.624Z,89.40
2024-03-12T20:10:17.559Z,89.40
2024-03-12T20:12:45.857Z,89.40
2024-03-12T20:15:13.674Z,89.40
2024-03-12T20:17:45.028Z,89.40
2024-03-12T20:20:18.453Z,89.40
2024-03-12T20:22:53.046Z,89.40
2024-03-12T20:25:23.179Z,89.40
2024-03-12T20:27:55.175Z,89.40
2024-03-12T20:30:28.438Z,89.40
2024-03-12T20:33:01.266Z,89.40
2024-03-12T20:35:31.204Z,89.40
2024-03-12T20:37:58.999Z,89.40
2024-03-12T20:40:27.666Z,89.50
2024-03-12T20:43:00.630Z,89.50
2024-03-12T20:45:30.155Z,89.50
2024-03-12T20:48:00.150Z,89.50
2024-03-12T20:50:28.199Z,89.50
2024-03-12T20:52:56.783Z,89.50
2024-03-12T20:55:24.857Z,89.50
2024-03-12T20:57:53.591Z,89.50
2024-03-12T21:00:29.763Z,89.50
2024-03-12T21:02:57.756Z,89.60
2024-03-12T21:05:31.414Z,89.60
2024-03-12T21:07:59.950Z,89.60
2024-03-12T21:10:29.142Z,89.60
2024-03-12T21:12:57.107Z,89.60
2024-03-12T21:15:24.804Z,89.60
2024-03-12T21:17:54.228Z,89.60
2024-03-12T21:20:33.920Z,89.60
2024-03-12T21:23:05.134Z,89.60
2024-03-12T21:25:34.803Z,89.60
2024-03-12T21:28:02.747Z,89.60
2024-03-12T21:30:30.449Z,89.60
2024-03-12T21:32:58.622Z,89.60
2024-03-12T21:35:26.179Z,89.60
2024-03-12T21:37:54.703Z,89.60
2024-03-12T21:40:26.277Z,89.60
2024-03-12T21:42:54.005Z,89.70
2024-03-12T21:45:21.697Z,89.70
2024-03-12T21:47:49.541Z,89.70
2024-03-12T21:50:17.908Z,89.60
2024-03-12T21:52:46.732Z,89.60
2024-03-12T21:55:14.813Z,89.60
2024-03-12T21:57:44.931Z,89.60
2024-03-12T22:00:20.406Z,89.60
2024-03-12T22:02:49.815Z,89.50
2024-03-12T22:05:21.197Z,89.50
2024-03-12T22:07:50.986Z,89.50
2024-03-12T22:10:19.337Z,89.50
2024-03-12T22:12:48.028Z,89.50
2024-03-12T22:15:16.409Z,89.50
2024-03-12T22:17:45.886Z,89.40
2024-03-12T22:20:19.596Z,89.40
2024-03-12T22:22:48.687Z,89.40
2024-03-12T22:25:20.102Z,89.30
2024-03-12T22:27:49.227Z,89.30
2024-03-12T22:30:21.611Z,89.20
2024-03-12T22:32:49.442Z,89.20
2024-03-12T22:35:17.251Z,89.20
2024-03-12T22:37:48.742Z,89.10
2024-03-12T22:40:17.369Z,89.10
2024-03-12T22:42:45.041Z,89.10
2024-03-12T22:45:13.278Z,89.10
2024-03-12T22:47:41.402Z,89.10
2024-03-12T22:50:10.061Z,89.10
2024-03-12T22:52:37.859Z,89.10
2024-03-12T22:55:05.878Z,89.10
2024-03-12T22:57:37.098Z,89.10
2024-03-12T23:00:25.276Z,89.10
2024-03-12T23:02:53.405Z,89.10
2024-03-12T23:05:22.038Z,89.10
2024-03-12T23:07:49.637Z,89.10
2024-03-12T23:10:17.264Z,89.10
2024-03-12T23:12:47.258Z,89.10
2024-03-12T23:15:16.228Z,89.10
2024-03-12T23:17:43.863Z,89.10
2024-03-12T23:20:14.527Z,89.10
2024-03-12T23:22:42.114Z,89.10
2024-03-12T23:25:10.276Z,89.00
2024-03-12T23:27:38.719Z,89.00
2024-03-12T23:30:17.929Z,89.00
2024-03-12T23:32:46.429Z,89.10
2024-03-12T23:35:14.207Z,89.10
2024-03-12T23:37:41.858Z,89.20
2024-03-12T23:40:09.748Z,89.20
2024-03-12T23:42:39.524Z,89.30
2024-03-12T23:45:10.182Z,89.30
2024-03-12T23:47:38.189Z,89.40
2024-03-12T23:50:08.894Z,89.40
2024-03-12T23:52:37.634Z,89.40
2024-03-12T23:55:06.675Z,89.50
2024-03-12T23:57:35.379Z,89.50
